LNWLF11 KNKX-KNKX
Flight info
| Callsign | LNWLF11 |
|---|---|
| Flight time | 0h 2m |
| Altitude | 5000 |
| Route | NUC NSI NKX |
| Aircraft | H60/L-DGILORTUVY/SB2 |
Departure
| Time | 2026-04-22 23:31 |
|---|---|
| Airport | Miramar Marine Corps Air Station - Mitscher Field (KNKX) |
Arrival
| Time | 2026-04-22 23:33 |
|---|---|
| Airport | Miramar Marine Corps Air Station - Mitscher Field (KNKX) |
| Time | Latitude | Longitude | Altitude | Speed | Heading |
|---|---|---|---|---|---|
| 2026-04-22 23:16 | 32.87270 | -117.14292 | 465 ft | 0 kts | 258° |
| 2026-04-22 23:28 | 32.87265 | -117.14309 | 466 ft | 2 kts | 239° |
| 2026-04-22 23:28 | 32.87258 | -117.14320 | 465 ft | 1 kts | 232° |
| 2026-04-22 23:28 | 32.87254 | -117.14320 | 465 ft | 2 kts | 149° |
| 2026-04-22 23:29 | 32.87252 | -117.14318 | 465 ft | 1 kts | 161° |
| 2026-04-22 23:29 | 32.87230 | -117.14311 | 465 ft | 6 kts | 166° |
| 2026-04-22 23:29 | 32.87190 | -117.14297 | 466 ft | 6 kts | 161° |
| 2026-04-22 23:30 | 32.87153 | -117.14308 | 521 ft | 8 kts | 186° |
| 2026-04-22 23:30 | 32.87091 | -117.14510 | 805 ft | 69 kts | 234° |
| 2026-04-22 23:30 | 32.86957 | -117.15453 | 855 ft | 141 kts | 264° |
| 2026-04-22 23:30 | 32.86832 | -117.16656 | 925 ft | 145 kts | 266° |
| 2026-04-22 23:31 | 32.86722 | -117.17797 | 1211 ft | 134 kts | 269° |
| 2026-04-22 23:31 | 32.86746 | -117.18893 | 1509 ft | 131 kts | 278° |
| 2026-04-22 23:31 | 32.86820 | -117.19950 | 1373 ft | 129 kts | 280° |
| 2026-04-22 23:31 | 32.86875 | -117.20954 | 1188 ft | 105 kts | 277° |
| 2026-04-22 23:32 | 32.86908 | -117.21786 | 1399 ft | 101 kts | 278° |
| 2026-04-22 23:32 | 32.86984 | -117.22618 | 1804 ft | 84 kts | 283° |
| 2026-04-22 23:32 | 32.87022 | -117.23102 | 2823 ft | 57 kts | 281° |
| 2026-04-22 23:32 | 32.87119 | -117.23911 | 1895 ft | 128 kts | 283° |
| 2026-04-22 23:33 | 32.87263 | -117.24800 | 1300 ft | 89 kts | 286° |
| 2026-04-22 23:33 | 32.87379 | -117.25415 | 1418 ft | 61 kts | 285° |
| 2026-04-22 23:33 | 32.87454 | -117.25763 | 1572 ft | 28 kts | 281° |
| 2026-04-22 23:33 | 32.87474 | -117.25938 | 1707 ft | 26 kts | 278° |
| 2026-04-22 23:34 | 32.87530 | -117.26365 | 2109 ft | 86 kts | 281° |
| 2026-04-22 23:34 | 32.87670 | -117.27299 | 2173 ft | 124 kts | 283° |
| 2026-04-22 23:34 | 32.87778 | -117.28223 | 2881 ft | 103 kts | 282° |
| 2026-04-22 23:34 | 32.87889 | -117.29073 | 3530 ft | 115 kts | 284° |
| 2026-04-22 23:35 | 32.88103 | -117.30103 | 3700 ft | 140 kts | 288° |
| 2026-04-22 23:35 | 32.88333 | -117.31224 | 3823 ft | 139 kts | 287° |
| 2026-04-22 23:35 | 32.88564 | -117.32357 | 3711 ft | 143 kts | 285° |
| 2026-04-22 23:35 | 32.88754 | -117.33535 | 3475 ft | 145 kts | 284° |
| 2026-04-22 23:36 | 32.88391 | -117.34487 | 3002 ft | 150 kts | 202° |
| 2026-04-22 23:36 | 32.87374 | -117.34317 | 1900 ft | 144 kts | 169° |
| 2026-04-22 23:36 | 32.86765 | -117.33592 | 1536 ft | 129 kts | 112° |
| 2026-04-22 23:36 | 32.86999 | -117.32612 | 1004 ft | 122 kts | 41° |
| 2026-04-22 23:37 | 32.87669 | -117.32369 | 1080 ft | 71 kts | 212° |
| 2026-04-22 23:37 | 32.88178 | -117.32051 | 954 ft | 78 kts | 330° |
| 2026-04-22 23:37 | 32.88375 | -117.31772 | 1517 ft | 29 kts | 325° |
| 2026-04-22 23:37 | 32.88513 | -117.31967 | 1847 ft | 52 kts | 321° |
| 2026-04-22 23:38 | 32.88879 | -117.32656 | 1495 ft | 136 kts | 306° |
| 2026-04-22 23:38 | 32.89463 | -117.33618 | 1134 ft | 146 kts | 307° |
| 2026-04-22 23:38 | 32.90104 | -117.34497 | 1027 ft | 133 kts | 313° |
| 2026-04-22 23:38 | 32.90747 | -117.35161 | 1060 ft | 113 kts | 319° |
| 2026-04-22 23:39 | 32.91228 | -117.35848 | 1270 ft | 110 kts | 304° |
| 2026-04-22 23:39 | 32.91464 | -117.36782 | 1176 ft | 126 kts | 286° |
| 2026-04-22 23:39 | 32.91604 | -117.37874 | 790 ft | 133 kts | 281° |
| 2026-04-22 23:39 | 32.91715 | -117.38833 | 943 ft | 102 kts | 282° |
| 2026-04-22 23:40 | 32.91792 | -117.39576 | 1460 ft | 79 kts | 281° |
| 2026-04-22 23:40 | 32.91830 | -117.40100 | 2117 ft | 24 kts | 13° |
| 2026-04-22 23:40 | 32.91964 | -117.39733 | 2081 ft | 113 kts | 9° |
| 2026-04-22 23:40 | 32.92245 | -117.38579 | 1679 ft | 161 kts | 67° |
| 2026-04-22 23:41 | 32.92459 | -117.37309 | 1884 ft | 164 kts | 90° |
| 2026-04-22 23:41 | 32.91640 | -117.36406 | 1645 ft | 158 kts | 167° |
| 2026-04-22 23:41 | 32.90954 | -117.36927 | 1857 ft | 122 kts | 255° |
| 2026-04-22 23:41 | 32.91308 | -117.37781 | 2127 ft | 117 kts | 312° |
| 2026-04-22 23:42 | 32.91827 | -117.38404 | 2741 ft | 113 kts | 301° |
| 2026-04-22 23:42 | 32.91624 | -117.39450 | 2705 ft | 138 kts | 260° |
| 2026-04-22 23:42 | 32.91435 | -117.40538 | 2908 ft | 132 kts | 263° |
| 2026-04-22 23:42 | 32.91293 | -117.41595 | 2927 ft | 127 kts | 268° |
| 2026-04-22 23:43 | 32.91262 | -117.42636 | 3042 ft | 124 kts | 273° |
| 2026-04-22 23:43 | 32.91250 | -117.43656 | 3246 ft | 122 kts | 273° |
| 2026-04-22 23:43 | 32.91210 | -117.44656 | 3458 ft | 119 kts | 272° |
| 2026-04-22 23:43 | 32.91179 | -117.45304 | 3619 ft | 117 kts | 272° |
| 2026-04-22 23:44 | 32.91154 | -117.46264 | 3868 ft | 115 kts | 273° |
| 2026-04-22 23:44 | 32.91157 | -117.47216 | 4112 ft | 116 kts | 275° |
| 2026-04-22 23:44 | 32.91188 | -117.48191 | 4289 ft | 121 kts | 278° |
| 2026-04-22 23:44 | 32.91251 | -117.49230 | 4270 ft | 132 kts | 279° |
| 2026-04-22 23:45 | 32.91322 | -117.50347 | 4059 ft | 134 kts | 278° |
| 2026-04-22 23:45 | 32.91352 | -117.51399 | 4129 ft | 117 kts | 276° |
| 2026-04-22 23:45 | 32.91324 | -117.52531 | 4768 ft | 96 kts | 275° |
| 2026-04-22 23:45 | 32.91323 | -117.53063 | 5011 ft | 99 kts | 276° |
| 2026-04-22 23:46 | 32.91325 | -117.53904 | 5251 ft | 103 kts | 278° |
| 2026-04-22 23:46 | 32.91316 | -117.54747 | 5521 ft | 102 kts | 277° |
| 2026-04-22 23:46 | 32.91312 | -117.55209 | 5658 ft | 101 kts | 278° |
| 2026-04-22 23:46 | 32.91306 | -117.56053 | 5877 ft | 104 kts | 276° |
| 2026-04-22 23:47 | 32.91408 | -117.56938 | 5983 ft | 113 kts | 286° |
| 2026-04-22 23:47 | 32.91750 | -117.57833 | 5871 ft | 126 kts | 301° |
| 2026-04-22 23:47 | 32.92015 | -117.58874 | 5214 ft | 147 kts | 277° |
| 2026-04-22 23:47 | 32.91447 | -117.59922 | 3888 ft | 173 kts | 216° |
| 2026-04-22 23:48 | 32.90709 | -117.60823 | 3054 ft | 139 kts | 260° |
| 2026-04-22 23:48 | 32.90571 | -117.61816 | 3259 ft | 115 kts | 270° |
| 2026-04-22 23:48 | 32.90507 | -117.62804 | 3341 ft | 128 kts | 274° |
| 2026-04-22 23:48 | 32.90413 | -117.63962 | 3562 ft | 152 kts | 271° |
| 2026-04-22 23:49 | 32.90279 | -117.65269 | 3654 ft | 166 kts | 272° |
| 2026-04-22 23:49 | 32.90009 | -117.66662 | 3562 ft | 175 kts | 265° |
| 2026-04-22 23:49 | 32.89777 | -117.68073 | 3622 ft | 176 kts | 263° |
| 2026-04-22 23:49 | 32.89508 | -117.69407 | 3157 ft | 140 kts | 260° |
| 2026-04-22 23:50 | 32.89316 | -117.70137 | 3547 ft | 99 kts | 264° |
| 2026-04-22 23:50 | 32.89181 | -117.71190 | 3533 ft | 153 kts | 263° |
| 2026-04-22 23:50 | 32.88996 | -117.72491 | 3397 ft | 158 kts | 266° |
| 2026-04-22 23:50 | 32.88850 | -117.73688 | 3520 ft | 144 kts | 266° |
| 2026-04-22 23:51 | 32.88646 | -117.74908 | 3285 ft | 136 kts | 264° |
| 2026-04-22 23:51 | 32.88421 | -117.75923 | 3363 ft | 129 kts | 261° |
| 2026-04-22 23:51 | 32.88209 | -117.77047 | 3121 ft | 142 kts | 266° |
| 2026-04-22 23:51 | 32.88038 | -117.78174 | 3390 ft | 149 kts | 268° |
| 2026-04-22 23:52 | 32.87848 | -117.79411 | 3407 ft | 142 kts | 266° |
| 2026-04-22 23:52 | 32.87685 | -117.80593 | 3244 ft | 131 kts | 266° |
| 2026-04-22 23:52 | 32.87529 | -117.81594 | 3632 ft | 140 kts | 268° |
| 2026-04-22 23:52 | 32.87333 | -117.82815 | 3428 ft | 144 kts | 264° |
| 2026-04-22 23:53 | 32.87138 | -117.83943 | 3416 ft | 132 kts | 269° |
| 2026-04-22 23:53 | 32.86930 | -117.84872 | 3565 ft | 123 kts | 263° |
| 2026-04-22 23:53 | 32.86755 | -117.85957 | 3403 ft | 137 kts | 264° |
| 2026-04-22 23:53 | 32.86581 | -117.87081 | 3473 ft | 144 kts | 266° |
| 2026-04-22 23:54 | 32.86364 | -117.88281 | 3412 ft | 150 kts | 263° |
| 2026-04-22 23:54 | 32.86169 | -117.89476 | 3547 ft | 139 kts | 267° |
| 2026-04-22 23:54 | 32.85944 | -117.90609 | 3445 ft | 144 kts | 263° |
| 2026-04-22 23:54 | 32.85742 | -117.91587 | 3490 ft | 119 kts | 265° |
| 2026-04-22 23:55 | 32.85544 | -117.92587 | 3484 ft | 127 kts | 263° |
| 2026-04-22 23:55 | 32.85374 | -117.93661 | 3445 ft | 135 kts | 264° |
| 2026-04-22 23:55 | 32.85187 | -117.94790 | 3438 ft | 143 kts | 264° |
| 2026-04-22 23:55 | 32.85010 | -117.95990 | 3430 ft | 148 kts | 264° |
| 2026-04-22 23:56 | 32.84806 | -117.97105 | 3403 ft | 131 kts | 264° |
| 2026-04-22 23:56 | 32.84567 | -117.98157 | 3373 ft | 124 kts | 263° |
| 2026-04-22 23:56 | 32.84433 | -117.99256 | 3400 ft | 143 kts | 271° |
| 2026-04-22 23:56 | 32.84297 | -118.00430 | 3429 ft | 143 kts | 269° |
| 2026-04-22 23:57 | 32.84149 | -118.01546 | 3529 ft | 135 kts | 266° |
| 2026-04-22 23:57 | 32.83947 | -118.02719 | 3444 ft | 146 kts | 262° |
| 2026-04-22 23:57 | 32.83629 | -118.03857 | 3567 ft | 147 kts | 257° |
| 2026-04-22 23:57 | 32.83186 | -118.04977 | 3579 ft | 151 kts | 251° |
| 2026-04-22 23:58 | 32.82904 | -118.06179 | 3513 ft | 146 kts | 268° |
| 2026-04-22 23:58 | 32.83010 | -118.07375 | 3490 ft | 142 kts | 287° |
| 2026-04-22 23:58 | 32.82998 | -118.08551 | 3418 ft | 149 kts | 265° |
| 2026-04-22 23:58 | 32.82802 | -118.09776 | 3487 ft | 153 kts | 263° |
| 2026-04-22 23:59 | 32.82658 | -118.10975 | 3827 ft | 139 kts | 274° |
| 2026-04-22 23:59 | 32.82640 | -118.12104 | 4162 ft | 136 kts | 276° |
| 2026-04-22 23:59 | 32.82312 | -118.13360 | 3307 ft | 189 kts | 243° |
| 2026-04-22 23:59 | 32.82035 | -118.14661 | 3070 ft | 148 kts | 276° |
| 2026-04-23 00:00 | 32.81804 | -118.16909 | 3948 ft | 128 kts | 278° |
| 2026-04-23 00:00 | 32.81871 | -118.17964 | 4454 ft | 132 kts | 279° |
| 2026-04-23 00:00 | 32.81903 | -118.19129 | 4578 ft | 149 kts | 275° |
| 2026-04-23 00:01 | 32.81972 | -118.20394 | 4601 ft | 155 kts | 278° |
| 2026-04-23 00:01 | 32.82094 | -118.21668 | 4693 ft | 157 kts | 281° |
| 2026-04-23 00:01 | 32.82136 | -118.23000 | 4600 ft | 165 kts | 273° |
| 2026-04-23 00:01 | 32.81999 | -118.24384 | 4403 ft | 172 kts | 267° |
| 2026-04-23 00:02 | 32.81919 | -118.25765 | 4280 ft | 160 kts | 273° |
| 2026-04-23 00:02 | 32.82061 | -118.27046 | 4389 ft | 153 kts | 284° |
| 2026-04-23 00:02 | 32.82273 | -118.28236 | 4654 ft | 142 kts | 287° |
| 2026-04-23 00:02 | 32.82370 | -118.29409 | 4848 ft | 145 kts | 277° |
| 2026-04-23 00:03 | 32.82171 | -118.30624 | 4908 ft | 153 kts | 263° |
| 2026-04-23 00:03 | 32.81976 | -118.31888 | 4922 ft | 157 kts | 266° |
| 2026-04-23 00:03 | 32.81826 | -118.33166 | 4999 ft | 156 kts | 267° |
| 2026-04-23 00:03 | 32.81716 | -118.34425 | 5136 ft | 151 kts | 269° |
| 2026-04-23 00:04 | 32.81651 | -118.35653 | 5295 ft | 147 kts | 273° |
| 2026-04-23 00:04 | 32.81628 | -118.36859 | 5443 ft | 144 kts | 276° |
| 2026-04-23 00:04 | 32.81648 | -118.38045 | 5550 ft | 143 kts | 279° |
| 2026-04-23 00:04 | 32.81743 | -118.39249 | 5468 ft | 152 kts | 284° |
| 2026-04-23 00:05 | 32.82022 | -118.40522 | 5042 ft | 168 kts | 292° |
| 2026-04-23 00:05 | 32.82514 | -118.41851 | 4154 ft | 182 kts | 301° |
| 2026-04-23 00:05 | 32.83285 | -118.43083 | 2874 ft | 188 kts | 310° |
| 2026-04-23 00:05 | 32.84245 | -118.43575 | 2190 ft | 153 kts | 29° |
| 2026-04-23 00:06 | 32.84599 | -118.42333 | 1917 ft | 166 kts | 71° |
| 2026-04-23 00:06 | 32.85037 | -118.41147 | 1917 ft | 146 kts | 48° |
| 2026-04-23 00:06 | 32.85791 | -118.40617 | 1911 ft | 104 kts | 18° |
| 2026-04-23 00:06 | 32.86385 | -118.40047 | 2138 ft | 103 kts | 112° |
| 2026-04-23 00:07 | 32.86588 | -118.39677 | 2687 ft | 27 kts | 178° |
| 2026-04-23 00:07 | 32.86121 | -118.39762 | 2224 ft | 126 kts | 203° |
| 2026-04-23 00:07 | 32.85261 | -118.40161 | 1376 ft | 97 kts | 214° |
| 2026-04-23 00:07 | 32.84971 | -118.40329 | 1264 ft | 5 kts | 209° |
| 2026-04-23 00:08 | 32.84896 | -118.40379 | 1383 ft | 42 kts | 205° |
| 2026-04-23 00:08 | 32.84487 | -118.40617 | 1151 ft | 46 kts | 215° |
| 2026-04-23 00:08 | 32.84430 | -118.40661 | 1087 ft | 7 kts | 207° |
| 2026-04-23 00:08 | 32.84373 | -118.40693 | 1084 ft | 21 kts | 205° |
| 2026-04-23 00:09 | 32.84231 | -118.40785 | 971 ft | 19 kts | 205° |
| 2026-04-23 00:09 | 32.84187 | -118.40829 | 961 ft | 7 kts | 204° |
| 2026-04-23 00:09 | 32.84103 | -118.40882 | 927 ft | 13 kts | 206° |
| 2026-04-23 00:09 | 32.84014 | -118.40941 | 916 ft | 15 kts | 211° |
| 2026-04-23 00:10 | 32.83953 | -118.40985 | 914 ft | 12 kts | 210° |
| 2026-04-23 00:10 | 32.83950 | -118.40987 | 913 ft | 12 kts | 210° |
| 2026-04-23 00:10 | 32.83934 | -118.40997 | 911 ft | 0 kts | 205° |
| 2026-04-23 00:12 | 32.83917 | -118.41002 | 984 ft | 18 kts | 203° |
| 2026-04-23 00:12 | 32.83677 | -118.41526 | 1115 ft | 114 kts | 258° |
| 2026-04-23 00:13 | 32.84097 | -118.42107 | 2233 ft | 100 kts | 329° |
| 2026-04-23 00:13 | 32.84731 | -118.41553 | 3397 ft | 114 kts | 36° |
| 2026-04-23 00:13 | 32.85460 | -118.41337 | 4344 ft | 120 kts | 5° |
| 2026-04-23 00:13 | 32.85902 | -118.42341 | 3685 ft | 178 kts | 269° |
| 2026-04-23 00:14 | 32.85005 | -118.43368 | 3031 ft | 193 kts | 202° |
| 2026-04-23 00:14 | 32.83902 | -118.43168 | 3978 ft | 121 kts | 165° |
| 2026-04-23 00:14 | 32.83687 | -118.42436 | 5247 ft | 102 kts | 147° |
| 2026-04-23 00:14 | 32.83848 | -118.41722 | 5703 ft | 79 kts | 144° |
| 2026-04-23 00:15 | 32.84098 | -118.41211 | 6017 ft | 67 kts | 143° |
| 2026-04-23 00:15 | 32.84368 | -118.40793 | 6323 ft | 61 kts | 142° |
| 2026-04-23 00:15 | 32.84576 | -118.40504 | 6389 ft | 71 kts | 119° |
| 2026-04-23 00:15 | 32.84475 | -118.40168 | 5758 ft | 117 kts | 156° |
| 2026-04-23 00:16 | 32.83923 | -118.41284 | 1925 ft | 138 kts | 309° |
| 2026-04-23 00:16 | 32.84753 | -118.40980 | 1663 ft | 143 kts | 33° |
| 2026-04-23 00:16 | 32.85334 | -118.40112 | 1759 ft | 126 kts | 25° |
| 2026-04-23 00:16 | 32.85682 | -118.39644 | 1549 ft | 76 kts | 268° |
| 2026-04-23 00:17 | 32.85856 | -118.39431 | 1598 ft | 15 kts | 265° |
| 2026-04-23 00:17 | 32.85903 | -118.39377 | 1647 ft | 24 kts | 289° |
| 2026-04-23 00:17 | 32.86109 | -118.39320 | 2269 ft | 33 kts | 284° |
| 2026-04-23 00:17 | 32.86469 | -118.39369 | 3109 ft | 46 kts | 285° |
| 2026-04-23 00:18 | 32.86636 | -118.39702 | 3845 ft | 74 kts | 257° |
| 2026-04-23 00:18 | 32.86491 | -118.40517 | 2168 ft | 115 kts | 253° |
| 2026-04-23 00:18 | 32.86066 | -118.40958 | 1282 ft | 48 kts | 233° |
| 2026-04-23 00:18 | 32.85926 | -118.41126 | 1444 ft | 33 kts | 230° |
| 2026-04-23 00:19 | 32.85847 | -118.41327 | 1442 ft | 26 kts | 145° |
| 2026-04-23 00:19 | 32.85800 | -118.41330 | 1394 ft | 0 kts | 46° |
| 2026-04-23 00:19 | 32.85802 | -118.41332 | 1395 ft | 2 kts | 42° |
| 2026-04-23 00:19 | 32.85806 | -118.41336 | 1410 ft | 1 kts | 40° |
| 2026-04-23 00:20 | 32.85850 | -118.41360 | 1615 ft | 42 kts | 334° |
| 2026-04-23 00:20 | 32.86528 | -118.41761 | 1624 ft | 147 kts | 329° |
| 2026-04-23 00:20 | 32.87454 | -118.42412 | 1994 ft | 164 kts | 326° |
| 2026-04-23 00:20 | 32.88441 | -118.43161 | 2215 ft | 171 kts | 325° |
| 2026-04-23 00:21 | 32.89436 | -118.44004 | 2062 ft | 176 kts | 321° |
| 2026-04-23 00:21 | 32.90315 | -118.44926 | 2248 ft | 161 kts | 316° |
| 2026-04-23 00:21 | 32.91104 | -118.45815 | 2739 ft | 150 kts | 316° |
| 2026-04-23 00:21 | 32.91765 | -118.46631 | 3549 ft | 127 kts | 315° |
| 2026-04-23 00:22 | 32.92413 | -118.47420 | 4098 ft | 139 kts | 315° |
| 2026-04-23 00:22 | 32.93125 | -118.48332 | 4038 ft | 165 kts | 314° |
| 2026-04-23 00:22 | 32.93926 | -118.49445 | 3465 ft | 185 kts | 310° |
| 2026-04-23 00:22 | 32.94706 | -118.50657 | 2613 ft | 172 kts | 307° |
| 2026-04-23 00:23 | 32.95312 | -118.51603 | 2639 ft | 120 kts | 308° |
| 2026-04-23 00:23 | 32.95758 | -118.52398 | 2525 ft | 119 kts | 306° |
| 2026-04-23 00:23 | 32.96281 | -118.53305 | 1815 ft | 143 kts | 304° |
| 2026-04-23 00:23 | 32.96828 | -118.54346 | 837 ft | 149 kts | 301° |
| 2026-04-23 00:24 | 32.97185 | -118.55040 | 1404 ft | 54 kts | 303° |
| 2026-04-23 00:24 | 32.97279 | -118.55179 | 1888 ft | 0 kts | 297° |
| 2026-04-23 00:24 | 32.97266 | -118.55181 | 1918 ft | 2 kts | 295° |
| 2026-04-23 00:24 | 32.97258 | -118.55184 | 1937 ft | 0 kts | 294° |
| 2026-04-23 00:25 | 32.97259 | -118.55184 | 1946 ft | 0 kts | 294° |
| 2026-04-23 00:25 | 32.97299 | -118.55160 | 1967 ft | 12 kts | 294° |
| 2026-04-23 00:26 | 32.97559 | -118.55237 | 2072 ft | 108 kts | 326° |
| 2026-04-23 00:26 | 32.98086 | -118.54608 | 1231 ft | 72 kts | 57° |
| 2026-04-23 00:26 | 32.97879 | -118.54106 | 1408 ft | 71 kts | 195° |
| 2026-04-23 00:26 | 32.97637 | -118.54354 | 1364 ft | 44 kts | 219° |
| 2026-04-23 00:27 | 32.97697 | -118.54756 | 1333 ft | 57 kts | 226° |
| 2026-04-23 00:27 | 32.97875 | -118.55174 | 1318 ft | 53 kts | 222° |
| 2026-04-23 00:27 | 32.98031 | -118.55589 | 1334 ft | 68 kts | 268° |
| 2026-04-23 00:27 | 32.98499 | -118.56279 | 832 ft | 133 kts | 311° |
| 2026-04-23 00:28 | 32.99055 | -118.56932 | 328 ft | 71 kts | 316° |
| 2026-04-23 00:28 | 32.99168 | -118.57083 | 384 ft | 3 kts | 309° |
| 2026-04-23 00:28 | 32.99171 | -118.57083 | 376 ft | 1 kts | 307° |
| 2026-04-23 00:28 | 32.99172 | -118.57082 | 334 ft | 0 kts | 306° |
| 2026-04-23 00:29 | 32.99172 | -118.57083 | 298 ft | 0 kts | 306° |
| 2026-04-23 00:29 | 32.99172 | -118.57082 | 591 ft | 4 kts | 19° |
| 2026-04-23 00:29 | 32.99161 | -118.56997 | 1026 ft | 30 kts | 60° |
| 2026-04-23 00:30 | 32.99195 | -118.56109 | 687 ft | 156 kts | 86° |
| 2026-04-23 00:30 | 32.99162 | -118.54854 | 633 ft | 145 kts | 91° |
| 2026-04-23 00:30 | 32.99061 | -118.53686 | 637 ft | 126 kts | 94° |
| 2026-04-23 00:30 | 32.99510 | -118.53096 | 680 ft | 108 kts | 35° |
| 2026-04-23 00:31 | 33.00160 | -118.53425 | 449 ft | 92 kts | 319° |
| 2026-04-23 00:31 | 33.00291 | -118.54097 | 870 ft | 80 kts | 286° |
| 2026-04-23 00:31 | 33.00087 | -118.54762 | 1010 ft | 93 kts | 258° |
| 2026-04-23 00:31 | 32.99841 | -118.55484 | 709 ft | 85 kts | 252° |
| 2026-04-23 00:32 | 32.99645 | -118.55739 | 992 ft | 18 kts | 244° |
| 2026-04-23 00:32 | 32.99601 | -118.55760 | 955 ft | 6 kts | 292° |
| 2026-04-23 00:32 | 32.99687 | -118.55851 | 1034 ft | 46 kts | 296° |
| 2026-04-23 00:32 | 33.00161 | -118.56413 | 688 ft | 120 kts | 314° |
| 2026-04-23 00:33 | 33.00651 | -118.56894 | 668 ft | 78 kts | 317° |
| 2026-04-23 00:33 | 33.01154 | -118.57236 | 599 ft | 95 kts | 326° |
| 2026-04-23 00:33 | 33.01648 | -118.57599 | 434 ft | 65 kts | 326° |
| 2026-04-23 00:33 | 33.01890 | -118.57840 | 409 ft | 28 kts | 319° |
| 2026-04-23 00:34 | 33.01985 | -118.57924 | 409 ft | 17 kts | 317° |
| 2026-04-23 00:34 | 33.02108 | -118.58061 | 255 ft | 23 kts | 316° |
| 2026-04-23 00:34 | 33.02158 | -118.58126 | 231 ft | 6 kts | 301° |
| 2026-04-23 00:34 | 33.02198 | -118.58234 | 235 ft | 16 kts | 298° |
| 2026-04-23 00:35 | 33.02232 | -118.58302 | 196 ft | 3 kts | 306° |
| 2026-04-23 00:35 | 33.02246 | -118.58320 | 216 ft | 4 kts | 357° |
| 2026-04-23 00:35 | 33.02301 | -118.58309 | 148 ft | 3 kts | 357° |
| 2026-04-23 00:35 | 33.02304 | -118.58337 | 146 ft | 11 kts | 56° |
| 2026-04-23 00:36 | 33.02313 | -118.58324 | 145 ft | 4 kts | 56° |
| 2026-04-23 00:36 | 33.02323 | -118.58291 | 142 ft | 2 kts | 64° |
| 2026-04-23 00:36 | 33.02323 | -118.58290 | 141 ft | 0 kts | 62° |
| 2026-04-23 00:37 | 33.02324 | -118.58290 | 143 ft | 1 kts | 59° |
| 2026-04-23 00:38 | 33.02332 | -118.58179 | 323 ft | 61 kts | 57° |
| 2026-04-23 00:38 | 33.01841 | -118.57358 | 560 ft | 148 kts | 140° |
| 2026-04-23 00:38 | 33.01137 | -118.56589 | 1966 ft | 144 kts | 148° |
| 2026-04-23 00:38 | 33.00762 | -118.55268 | 2444 ft | 182 kts | 106° |
| 2026-04-23 00:39 | 33.00887 | -118.53937 | 3256 ft | 149 kts | 71° |
| 2026-04-23 00:39 | 33.01621 | -118.53052 | 3697 ft | 164 kts | 40° |
| 2026-04-23 00:39 | 33.01906 | -118.51657 | 3842 ft | 183 kts | 88° |
| 2026-04-23 00:39 | 33.01481 | -118.50241 | 4343 ft | 170 kts | 110° |
| 2026-04-23 00:40 | 33.01109 | -118.49076 | 5424 ft | 133 kts | 108° |
| 2026-04-23 00:40 | 33.00784 | -118.48174 | 6626 ft | 108 kts | 112° |
| 2026-04-23 00:40 | 33.00439 | -118.47365 | 7633 ft | 115 kts | 119° |
| 2026-04-23 00:40 | 33.00034 | -118.46433 | 8347 ft | 141 kts | 121° |
| 2026-04-23 00:41 | 32.99579 | -118.45259 | 8690 ft | 169 kts | 116° |
| 2026-04-23 00:41 | 32.99204 | -118.43850 | 8757 ft | 187 kts | 105° |
| 2026-04-23 00:41 | 32.98865 | -118.42307 | 8722 ft | 197 kts | 104° |
| 2026-04-23 00:41 | 32.98480 | -118.40746 | 8799 ft | 193 kts | 109° |
| 2026-04-23 00:42 | 32.97996 | -118.39313 | 9114 ft | 184 kts | 114° |
| 2026-04-23 00:42 | 32.97602 | -118.37931 | 9577 ft | 158 kts | 109° |
| 2026-04-23 00:42 | 32.97297 | -118.36836 | 10527 ft | 129 kts | 112° |
| 2026-04-23 00:42 | 32.96952 | -118.35787 | 11096 ft | 151 kts | 116° |
| 2026-04-23 00:43 | 32.96544 | -118.34460 | 11071 ft | 183 kts | 112° |
| 2026-04-23 00:43 | 32.96095 | -118.33028 | 10989 ft | 184 kts | 113° |
| 2026-04-23 00:43 | 32.95694 | -118.31510 | 10480 ft | 204 kts | 105° |
| 2026-04-23 00:43 | 32.95463 | -118.29854 | 9938 ft | 183 kts | 100° |
| 2026-04-23 00:44 | 32.95141 | -118.28521 | 10187 ft | 158 kts | 113° |
| 2026-04-23 00:44 | 32.94654 | -118.27402 | 10461 ft | 145 kts | 122° |
| 2026-04-23 00:44 | 32.94200 | -118.26402 | 10902 ft | 132 kts | 124° |
| 2026-04-23 00:44 | 32.93862 | -118.25345 | 11181 ft | 146 kts | 112° |
| 2026-04-23 00:45 | 32.93742 | -118.24059 | 11153 ft | 166 kts | 95° |
| 2026-04-23 00:45 | 32.93682 | -118.22600 | 10783 ft | 187 kts | 91° |
| 2026-04-23 00:45 | 32.93672 | -118.20964 | 10059 ft | 208 kts | 88° |
| 2026-04-23 00:45 | 32.93664 | -118.19243 | 9331 ft | 198 kts | 92° |
| 2026-04-23 00:46 | 32.93422 | -118.17810 | 9573 ft | 160 kts | 108° |
| 2026-04-23 00:46 | 32.92991 | -118.16741 | 10129 ft | 127 kts | 122° |
| 2026-04-23 00:46 | 32.92668 | -118.15751 | 10561 ft | 139 kts | 115° |
| 2026-04-23 00:46 | 32.92665 | -118.14408 | 10119 ft | 186 kts | 83° |
| 2026-04-23 00:47 | 32.93187 | -118.12875 | 8685 ft | 212 kts | 54° |
| 2026-04-23 00:47 | 32.93964 | -118.11315 | 6583 ft | 221 kts | 65° |
| 2026-04-23 00:47 | 32.94394 | -118.09672 | 5802 ft | 190 kts | 72° |
| 2026-04-23 00:47 | 32.94513 | -118.08350 | 6318 ft | 136 kts | 88° |
| 2026-04-23 00:48 | 32.94238 | -118.07419 | 7176 ft | 113 kts | 109° |
| 2026-04-23 00:48 | 32.93858 | -118.06570 | 7810 ft | 117 kts | 121° |
| 2026-04-23 00:48 | 32.93435 | -118.05697 | 8330 ft | 135 kts | 123° |
| 2026-04-23 00:48 | 32.93292 | -118.04899 | 8367 ft | 157 kts | 103° |
| 2026-04-23 00:49 | 32.93160 | -118.03532 | 8231 ft | 174 kts | 97° |
| 2026-04-23 00:49 | 32.92953 | -118.02046 | 7918 ft | 190 kts | 100° |
| 2026-04-23 00:49 | 32.92688 | -118.00460 | 7398 ft | 200 kts | 102° |
| 2026-04-23 00:49 | 32.92397 | -117.98816 | 6712 ft | 200 kts | 101° |
| 2026-04-23 00:50 | 32.92112 | -117.97361 | 6905 ft | 162 kts | 103° |
| 2026-04-23 00:50 | 32.91841 | -117.96120 | 7315 ft | 150 kts | 104° |
| 2026-04-23 00:50 | 32.91552 | -117.94959 | 7802 ft | 146 kts | 107° |
| 2026-04-23 00:50 | 32.91238 | -117.93792 | 8142 ft | 151 kts | 109° |
| 2026-04-23 00:51 | 32.90844 | -117.92571 | 8215 ft | 166 kts | 114° |
| 2026-04-23 00:51 | 32.90425 | -117.91219 | 8018 ft | 181 kts | 110° |
| 2026-04-23 00:51 | 32.90062 | -117.89724 | 7625 ft | 194 kts | 104° |
| 2026-04-23 00:51 | 32.89885 | -117.88099 | 7010 ft | 204 kts | 91° |
| 2026-04-23 00:52 | 32.90030 | -117.86397 | 6006 ft | 211 kts | 75° |
| 2026-04-23 00:52 | 32.90517 | -117.84735 | 4454 ft | 215 kts | 62° |
| 2026-04-23 00:52 | 32.91320 | -117.83238 | 1930 ft | 214 kts | 47° |
| 2026-04-23 00:52 | 32.92004 | -117.82064 | 470 ft | 119 kts | 3° |
| 2026-04-23 00:53 | 32.91849 | -117.81244 | 1879 ft | 83 kts | 111° |
| 2026-04-23 00:53 | 32.91466 | -117.81161 | 3063 ft | 36 kts | 109° |
| 2026-04-23 00:53 | 32.91260 | -117.81202 | 3528 ft | 34 kts | 105° |
| 2026-04-23 00:53 | 32.90925 | -117.81090 | 4002 ft | 63 kts | 104° |
| 2026-04-23 00:54 | 32.90595 | -117.80723 | 4773 ft | 82 kts | 110° |
| 2026-04-23 00:54 | 32.90362 | -117.79887 | 5522 ft | 124 kts | 107° |
| 2026-04-23 00:54 | 32.90277 | -117.78901 | 6514 ft | 118 kts | 94° |
| 2026-04-23 00:54 | 32.90078 | -117.77905 | 7316 ft | 138 kts | 104° |
| 2026-04-23 00:55 | 32.89650 | -117.76677 | 7494 ft | 181 kts | 114° |
| 2026-04-23 00:55 | 32.89112 | -117.75181 | 7142 ft | 209 kts | 112° |
| 2026-04-23 00:55 | 32.88667 | -117.73465 | 6410 ft | 225 kts | 101° |
| 2026-04-23 00:55 | 32.88475 | -117.71600 | 5324 ft | 227 kts | 93° |
| 2026-04-23 00:56 | 32.88406 | -117.69759 | 4465 ft | 218 kts | 89° |
| 2026-04-23 00:56 | 32.88362 | -117.68031 | 4304 ft | 196 kts | 92° |
| 2026-04-23 00:56 | 32.88170 | -117.66529 | 4932 ft | 159 kts | 100° |
| 2026-04-23 00:56 | 32.87894 | -117.65364 | 5949 ft | 140 kts | 106° |
| 2026-04-23 00:57 | 32.87647 | -117.64202 | 6709 ft | 155 kts | 101° |
| 2026-04-23 00:57 | 32.87527 | -117.62849 | 6971 ft | 177 kts | 93° |
| 2026-04-23 00:57 | 32.87495 | -117.61324 | 7033 ft | 190 kts | 89° |
| 2026-04-23 00:57 | 32.87564 | -117.59737 | 7032 ft | 195 kts | 84° |
| 2026-04-23 00:58 | 32.87736 | -117.58121 | 6989 ft | 197 kts | 78° |
| 2026-04-23 00:58 | 32.87923 | -117.56507 | 6997 ft | 197 kts | 81° |
| 2026-04-23 00:58 | 32.88007 | -117.54873 | 6980 ft | 198 kts | 84° |
| 2026-04-23 00:58 | 32.88037 | -117.53251 | 7013 ft | 196 kts | 88° |
| 2026-04-23 00:59 | 32.88088 | -117.51625 | 7008 ft | 198 kts | 87° |
| 2026-04-23 00:59 | 32.88070 | -117.49969 | 6988 ft | 201 kts | 88° |
| 2026-04-23 00:59 | 32.88056 | -117.48315 | 6982 ft | 199 kts | 88° |
| 2026-04-23 00:59 | 32.88029 | -117.46671 | 6998 ft | 198 kts | 90° |
| 2026-04-23 01:00 | 32.88028 | -117.45043 | 7029 ft | 197 kts | 89° |
| 2026-04-23 01:00 | 32.87972 | -117.43399 | 6968 ft | 204 kts | 93° |
| 2026-04-23 01:00 | 32.87819 | -117.41653 | 6472 ft | 219 kts | 94° |
| 2026-04-23 01:00 | 32.87806 | -117.39807 | 5451 ft | 224 kts | 87° |
| 2026-04-23 01:01 | 32.87799 | -117.38101 | 5407 ft | 191 kts | 90° |
| 2026-04-23 01:01 | 32.87648 | -117.36602 | 5944 ft | 173 kts | 99° |
| 2026-04-23 01:01 | 32.87432 | -117.35227 | 6559 ft | 169 kts | 98° |
| 2026-04-23 01:01 | 32.87444 | -117.33778 | 6784 ft | 181 kts | 87° |
| 2026-04-23 01:02 | 32.87519 | -117.32206 | 5471 ft | 199 kts | 83° |
| 2026-04-23 01:02 | 32.87645 | -117.30566 | 3939 ft | 182 kts | 82° |
| 2026-04-23 01:02 | 32.87726 | -117.29223 | 4190 ft | 149 kts | 86° |
| 2026-04-23 01:02 | 32.87640 | -117.28003 | 4406 ft | 152 kts | 95° |
| 2026-04-23 01:03 | 32.87444 | -117.26709 | 4256 ft | 167 kts | 100° |
| 2026-04-23 01:03 | 32.87227 | -117.25251 | 3623 ft | 191 kts | 98° |
| 2026-04-23 01:03 | 32.87187 | -117.23639 | 2630 ft | 198 kts | 83° |
| 2026-04-23 01:03 | 32.87384 | -117.22061 | 1909 ft | 182 kts | 77° |
| 2026-04-23 01:04 | 32.87530 | -117.20668 | 2046 ft | 160 kts | 79° |
| 2026-04-23 01:04 | 32.87487 | -117.19367 | 2186 ft | 161 kts | 94° |
| 2026-04-23 01:04 | 32.87198 | -117.17331 | 831 ft | 90 kts | 100° |
| 2026-04-23 01:05 | 32.87160 | -117.16912 | 762 ft | 31 kts | 94° |
| 2026-04-23 01:05 | 32.87169 | -117.16686 | 738 ft | 20 kts | 90° |
| 2026-04-23 01:05 | 32.87185 | -117.16611 | 761 ft | 7 kts | 89° |
| 2026-04-23 01:05 | 32.87189 | -117.16182 | 619 ft | 86 kts | 89° |
| 2026-04-23 01:06 | 32.87214 | -117.15721 | 548 ft | 26 kts | 84° |
| 2026-04-23 01:06 | 32.87207 | -117.15687 | 491 ft | 3 kts | 61° |
| 2026-04-23 01:06 | 32.87212 | -117.15669 | 515 ft | 2 kts | 58° |
| 2026-04-23 01:06 | 32.87222 | -117.15648 | 505 ft | 1 kts | 57° |
| 2026-04-23 01:07 | 32.87230 | -117.15640 | 467 ft | 0 kts | 57° |
| 2026-04-23 01:07 | 32.87230 | -117.15639 | 465 ft | 0 kts | 57° |
| 2026-04-23 01:07 | 32.87232 | -117.15635 | 464 ft | 2 kts | 55° |
| 2026-04-23 01:07 | 32.87248 | -117.15605 | 466 ft | 6 kts | 64° |
| 2026-04-23 01:08 | 32.87269 | -117.15564 | 467 ft | 5 kts | 56° |
| 2026-04-23 01:08 | 32.87280 | -117.15545 | 467 ft | 1 kts | 52° |
| 2026-04-23 01:08 | 32.87289 | -117.15538 | 471 ft | 1 kts | 51° |
| 2026-04-23 01:08 | 32.87292 | -117.15526 | 470 ft | 3 kts | 51° |
| 2026-04-23 01:09 | 32.87305 | -117.15502 | 471 ft | 6 kts | 61° |
| 2026-04-23 01:09 | 32.87300 | -117.15375 | 472 ft | 25 kts | 56° |
| 2026-04-23 01:09 | 32.87316 | -117.15099 | 477 ft | 32 kts | 101° |
| 2026-04-23 01:09 | 32.87256 | -117.14973 | 478 ft | 6 kts | 94° |
| 2026-04-23 01:10 | 32.87241 | -117.14945 | 466 ft | 6 kts | 97° |
| 2026-04-23 01:10 | 32.87207 | -117.14861 | 471 ft | 18 kts | 93° |
| 2026-04-23 01:10 | 32.87171 | -117.14665 | 467 ft | 26 kts | 91° |
| 2026-04-23 01:10 | 32.87185 | -117.14578 | 470 ft | 2 kts | 65° |
| 2026-04-23 01:11 | 32.87202 | -117.14543 | 476 ft | 18 kts | 63° |
| 2026-04-23 01:11 | 32.87250 | -117.14432 | 466 ft | 7 kts | 65° |
| 2026-04-23 01:11 | 32.87263 | -117.14401 | 474 ft | 5 kts | 59° |
| 2026-04-23 01:11 | 32.87277 | -117.14381 | 473 ft | 2 kts | 255° |
| 2026-04-23 01:12 | 32.87281 | -117.14392 | 464 ft | 0 kts | 253° |